createdAt,value
2023-12-12T00:00:04.708Z,47.88
2023-12-12T00:03:02.877Z,47.55
2023-12-12T00:05:31.839Z,47.43
2023-12-12T00:08:01.427Z,47.32
2023-12-12T00:10:30.896Z,47.19
2023-12-12T00:13:00.267Z,47.49
2023-12-12T00:15:29.083Z,47.09
2023-12-12T00:17:58.146Z,47.14
2023-12-12T00:20:28.285Z,47.83
2023-12-12T00:22:57.353Z,47.64
2023-12-12T00:25:26.332Z,48.54
2023-12-12T00:27:55.510Z,49.79
2023-12-12T00:30:25.693Z,49.42
2023-12-12T00:32:54.783Z,49.71
2023-12-12T00:35:23.551Z,50.22
2023-12-12T00:37:54.238Z,50.45
2023-12-12T00:40:23.060Z,51.09
2023-12-12T00:42:53.192Z,51.18
2023-12-12T00:45:21.944Z,51.95
2023-12-12T00:47:51.096Z,52.58
2023-12-12T00:50:19.907Z,52.89
2023-12-12T00:52:48.983Z,53.62
2023-12-12T00:55:19.254Z,53.62
2023-12-12T00:57:48.452Z,54.06
2023-12-12T01:00:18.416Z,55.52
2023-12-12T01:02:47.605Z,55.49
2023-12-12T01:05:16.732Z,55.63
2023-12-12T01:07:45.854Z,55.39
2023-12-12T01:10:14.707Z,55.84
2023-12-12T01:12:45.194Z,55.94
2023-12-12T01:15:14.048Z,56.17
2023-12-12T01:17:43.589Z,55.26
2023-12-12T01:20:12.870Z,55.69
2023-12-12T01:22:41.951Z,55.36
2023-12-12T01:25:10.957Z,55.32
2023-12-12T01:27:40.174Z,55.72
2023-12-12T01:30:11.081Z,55.79
2023-12-12T01:32:40.184Z,55.24
2023-12-12T01:35:09.709Z,55.62
2023-12-12T01:37:38.980Z,56.35
2023-12-12T01:40:10.157Z,56.59
2023-12-12T01:42:39.325Z,56.71
2023-12-12T01:45:10.758Z,56.41
2023-12-12T01:47:40.146Z,57.03
2023-12-12T01:50:10.149Z,57.11
2023-12-12T01:52:39.601Z,56.65
2023-12-12T01:55:12.472Z,56.92
2023-12-12T01:57:42.346Z,56.73
2023-12-12T02:00:14.448Z,56.28
2023-12-12T02:02:43.533Z,56.38
2023-12-12T02:05:13.439Z,56.25
2023-12-12T02:07:43.828Z,56.37
2023-12-12T02:10:12.719Z,56.53
2023-12-12T02:12:41.868Z,55.46
2023-12-12T02:15:12.388Z,55.71
2023-12-12T02:17:41.423Z,55.31
2023-12-12T02:20:11.027Z,55.28
2023-12-12T02:22:41.639Z,55.96
2023-12-12T02:25:10.639Z,56.39
2023-12-12T02:27:40.492Z,56.72
2023-12-12T02:30:09.998Z,58.63
2023-12-12T02:32:39.116Z,59.17
2023-12-12T02:35:08.321Z,58.76
2023-12-12T02:37:37.513Z,59.19
2023-12-12T02:40:09.750Z,59.91
2023-12-12T02:42:38.878Z,58.58
2023-12-12T02:45:08.202Z,58.64
2023-12-12T02:47:37.209Z,59.43
2023-12-12T02:50:06.927Z,60.07
2023-12-12T02:52:36.250Z,59.33
2023-12-12T02:55:05.549Z,59.41
2023-12-12T02:57:36.085Z,60.22
2023-12-12T03:00:06.810Z,60.10
2023-12-12T03:02:35.940Z,59.52
2023-12-12T03:05:06.115Z,59.62
2023-12-12T03:07:35.705Z,59.96
2023-12-12T03:10:05.146Z,60.13
2023-12-12T03:12:35.698Z,59.81
2023-12-12T03:15:05.767Z,59.74
2023-12-12T03:17:35.251Z,59.67
2023-12-12T03:20:04.378Z,59.71
2023-12-12T03:22:33.526Z,59.62
2023-12-12T03:25:02.747Z,59.21
2023-12-12T03:27:32.521Z,59.25
2023-12-12T03:30:03.611Z,59.02
2023-12-12T03:32:32.955Z,59.17
2023-12-12T03:35:01.869Z,59.40
2023-12-12T03:37:31.333Z,59.14
2023-12-12T03:40:00.399Z,59.12
2023-12-12T03:42:29.508Z,58.28
2023-12-12T03:44:58.251Z,57.87
2023-12-12T03:47:28.819Z,57.89
2023-12-12T03:49:57.688Z,57.23
2023-12-12T03:52:26.914Z,57.67
2023-12-12T03:54:55.720Z,57.41
2023-12-12T03:57:24.781Z,57.13
2023-12-12T03:59:53.578Z,57.61
2023-12-12T04:02:22.725Z,57.37
2023-12-12T04:04:53.030Z,57.72
2023-12-12T04:07:22.241Z,58.27
2023-12-12T04:09:51.228Z,59.52
2023-12-12T04:12:20.527Z,58.72
2023-12-12T04:14:49.318Z,59.99
2023-12-12T04:17:18.440Z,59.39
2023-12-12T04:19:47.274Z,59.69
2023-12-12T04:22:17.817Z,59.26
2023-12-12T04:24:46.844Z,58.94
2023-12-12T04:27:16.013Z,58.67
2023-12-12T04:29:44.883Z,58.84
2023-12-12T04:32:13.991Z,58.95
2023-12-12T04:34:42.921Z,59.17
2023-12-12T04:37:12.088Z,58.96
2023-12-12T04:39:42.445Z,59.19
2023-12-12T04:42:14.297Z,58.84
2023-12-12T04:44:44.101Z,58.32
2023-12-12T04:47:14.414Z,58.52
2023-12-12T04:49:43.405Z,57.73
2023-12-12T04:52:12.806Z,57.40
2023-12-12T04:54:43.048Z,57.66
2023-12-12T04:57:12.203Z,57.34
2023-12-12T04:59:40.996Z,57.53
2023-12-12T05:02:10.165Z,57.05
2023-12-12T05:04:39.519Z,57.17
2023-12-12T05:07:08.685Z,57.89
2023-12-12T05:09:37.567Z,57.70
2023-12-12T05:12:09.493Z,57.46
2023-12-12T05:14:38.253Z,57.00
2023-12-12T05:17:10.922Z,57.12
2023-12-12T05:19:40.361Z,56.48
2023-12-12T05:22:09.668Z,56.77
2023-12-12T05:24:38.519Z,56.45
2023-12-12T05:27:09.041Z,56.69
2023-12-12T05:29:38.073Z,56.19
2023-12-12T05:32:08.384Z,56.13
2023-12-12T05:34:37.312Z,56.56
2023-12-12T05:37:06.685Z,56.23
2023-12-12T05:39:35.655Z,56.13
2023-12-12T05:42:05.106Z,56.14
2023-12-12T05:44:35.293Z,56.45
2023-12-12T05:47:04.380Z,57.67
2023-12-12T05:49:33.216Z,57.44
2023-12-12T05:52:05.427Z,57.64
2023-12-12T05:54:34.440Z,56.95
2023-12-12T05:57:03.541Z,57.03
2023-12-12T05:59:32.480Z,56.52
2023-12-12T06:02:05.171Z,56.95
2023-12-12T06:04:36.285Z,56.99
2023-12-12T06:07:06.641Z,56.86
2023-12-12T06:09:35.433Z,56.70
2023-12-12T06:12:04.544Z,56.30
2023-12-12T06:14:33.279Z,56.97
2023-12-12T06:17:04.199Z,57.00
2023-12-12T06:19:33.136Z,57.09
2023-12-12T06:22:02.899Z,56.95
2023-12-12T06:24:32.414Z,57.30
2023-12-12T06:27:01.645Z,56.76
2023-12-12T06:29:30.488Z,57.06
2023-12-12T06:31:59.724Z,56.86
2023-12-12T06:34:30.193Z,56.91
2023-12-12T06:36:59.410Z,56.94
2023-12-12T06:39:28.197Z,56.76
2023-12-12T06:41:57.679Z,56.70
2023-12-12T06:44:26.880Z,56.94
2023-12-12T06:46:56.045Z,56.80
2023-12-12T06:49:25.101Z,56.92
2023-12-12T06:51:55.703Z,57.43
2023-12-12T06:54:24.590Z,56.51
2023-12-12T06:56:53.701Z,56.87
2023-12-12T06:59:22.633Z,56.90
2023-12-12T07:01:52.651Z,56.67
2023-12-12T07:04:21.694Z,56.47
2023-12-12T07:06:50.947Z,56.64
2023-12-12T07:09:21.292Z,56.33
2023-12-12T07:14:37.057Z,56.10
2023-12-12T07:17:06.629Z,55.55
2023-12-12T07:19:36.055Z,55.42
2023-12-12T07:22:05.885Z,55.02
2023-12-12T07:24:36.921Z,55.40
2023-12-12T07:27:06.450Z,55.16
2023-12-12T07:29:36.117Z,54.87
2023-12-12T07:32:05.962Z,54.54
2023-12-12T07:34:36.799Z,54.78
2023-12-12T07:37:07.429Z,54.30
2023-12-12T07:39:37.859Z,54.90
2023-12-12T07:42:07.148Z,54.15
2023-12-12T07:44:36.171Z,54.27
2023-12-12T07:47:05.695Z,53.90
2023-12-12T07:49:34.682Z,53.83
2023-12-12T07:52:03.017Z,53.59
2023-12-12T07:54:32.211Z,53.22
2023-12-12T07:57:02.812Z,53.04
2023-12-12T07:59:31.692Z,52.92
2023-12-12T08:02:01.209Z,52.47
2023-12-12T08:04:30.492Z,52.24
2023-12-12T08:07:00.859Z,52.03
2023-12-12T08:09:30.789Z,52.01
2023-12-12T08:11:59.909Z,51.24
2023-12-12T08:14:30.140Z,51.29
2023-12-12T08:16:59.295Z,51.21
2023-12-12T08:19:28.341Z,50.37
2023-12-12T08:21:57.564Z,50.67
2023-12-12T08:24:26.385Z,50.75
2023-12-12T08:26:56.157Z,50.72
2023-12-12T08:29:24.967Z,50.71
2023-12-12T08:31:55.602Z,50.28
2023-12-12T08:34:25.214Z,50.20
2023-12-12T08:36:54.528Z,50.30
2023-12-12T08:39:23.505Z,50.31
2023-12-12T08:41:52.699Z,49.82
2023-12-12T08:44:21.574Z,50.45
2023-12-12T08:46:51.658Z,50.23
2023-12-12T08:49:22.068Z,50.19
2023-12-12T08:51:51.308Z,49.90
2023-12-12T08:54:20.274Z,49.84
2023-12-12T08:56:54.451Z,49.55
2023-12-12T08:59:23.657Z,50.16
2023-12-12T09:01:53.173Z,49.36
2023-12-12T09:04:23.781Z,49.49
2023-12-12T09:06:53.109Z,49.45
2023-12-12T09:09:23.208Z,49.91
2023-12-12T09:11:52.405Z,49.51
2023-12-12T09:14:21.183Z,49.45
2023-12-12T09:16:50.319Z,49.74
2023-12-12T09:19:19.529Z,51.09
2023-12-12T09:21:51.265Z,50.96
2023-12-12T09:24:20.104Z,51.14
2023-12-12T09:26:49.366Z,50.75
2023-12-12T09:29:18.129Z,50.34
2023-12-12T09:31:47.565Z,49.41
2023-12-12T09:34:16.535Z,49.07
2023-12-12T09:36:45.713Z,48.76
2023-12-12T09:39:16.354Z,48.31
2023-12-12T09:41:48.707Z,47.81
2023-12-12T09:44:20.331Z,48.31
2023-12-12T09:46:52.339Z,47.49
2023-12-12T09:49:21.499Z,47.55
2023-12-12T09:51:53.337Z,46.16
2023-12-12T09:54:25.996Z,47.11
2023-12-12T09:56:56.506Z,46.19
2023-12-12T09:59:25.298Z,46.53
2023-12-12T10:02:04.693Z,45.62
2023-12-12T10:04:39.560Z,45.85
2023-12-12T10:07:10.427Z,46.07
2023-12-12T10:09:41.159Z,46.27
2023-12-12T10:12:10.458Z,46.55
2023-12-12T10:14:41.275Z,46.29
2023-12-12T10:17:12.337Z,45.09
2023-12-12T10:19:41.538Z,45.27
2023-12-12T10:22:11.965Z,44.63
2023-12-12T10:24:42.291Z,44.69
2023-12-12T10:27:22.468Z,44.67
2023-12-12T10:29:51.252Z,45.53
2023-12-12T10:32:20.461Z,45.73
2023-12-12T10:34:49.401Z,45.75
2023-12-12T10:37:23.023Z,44.99
2023-12-12T10:39:53.688Z,45.24
2023-12-12T10:42:22.861Z,44.99
2023-12-12T10:44:59.039Z,45.03
2023-12-12T10:47:29.044Z,44.14
2023-12-12T10:50:03.086Z,44.11
2023-12-12T10:52:35.406Z,43.79
2023-12-12T10:55:08.151Z,43.81
2023-12-12T10:57:39.289Z,44.25
2023-12-12T11:00:16.926Z,43.82
2023-12-12T11:02:49.460Z,43.35
2023-12-12T11:05:19.274Z,42.99
2023-12-12T11:07:49.847Z,42.70
2023-12-12T11:10:24.045Z,42.81
2023-12-12T11:12:55.861Z,42.88
2023-12-12T11:15:26.788Z,42.92
2023-12-12T11:17:56.686Z,42.58
2023-12-12T11:20:26.257Z,42.84
2023-12-12T11:22:55.822Z,42.46
2023-12-12T11:25:32.379Z,42.56
2023-12-12T11:28:03.173Z,42.80
2023-12-12T11:30:33.526Z,43.48
2023-12-12T11:33:03.067Z,43.01
2023-12-12T11:35:34.191Z,43.33
2023-12-12T11:38:06.199Z,43.03
2023-12-12T11:40:38.942Z,42.91
2023-12-12T11:43:21.899Z,42.91
2023-12-12T11:45:50.888Z,42.17
2023-12-12T11:48:20.361Z,42.06
2023-12-12T11:50:49.344Z,42.48
2023-12-12T11:53:42.591Z,42.21
2023-12-12T11:56:12.977Z,42.99
2023-12-12T11:58:42.104Z,43.97
2023-12-12T12:01:11.011Z,43.22
2023-12-12T12:03:40.232Z,43.10
2023-12-12T12:06:09.776Z,44.43
2023-12-12T12:08:39.292Z,45.22
2023-12-12T12:11:08.291Z,45.65
2023-12-12T12:13:43.358Z,45.02
2023-12-12T12:16:12.790Z,45.58
2023-12-12T12:18:41.995Z,43.70
2023-12-12T12:21:10.972Z,44.26
2023-12-12T12:23:41.192Z,43.72
2023-12-12T12:26:10.220Z,43.44
2023-12-12T12:28:39.403Z,43.18
2023-12-12T12:31:10.015Z,42.87
2023-12-12T12:33:41.086Z,42.36
2023-12-12T12:36:10.588Z,42.02
2023-12-12T12:38:39.783Z,41.98
2023-12-12T12:41:23.715Z,41.57
2023-12-12T12:43:54.377Z,41.81
2023-12-12T12:46:25.026Z,41.71
2023-12-12T12:48:54.411Z,41.35
2023-12-12T12:51:24.399Z,41.45
2023-12-12T12:53:54.270Z,41.34
2023-12-12T12:56:23.603Z,41.47
2023-12-12T12:58:52.833Z,41.41
2023-12-12T13:01:23.288Z,41.26
2023-12-12T13:03:54.208Z,41.19
2023-12-12T13:06:23.213Z,41.21
2023-12-12T13:08:52.637Z,41.12
2023-12-12T13:11:21.872Z,41.34
2023-12-12T13:13:52.066Z,41.15
2023-12-12T13:16:21.399Z,42.00
2023-12-12T13:18:50.657Z,45.03
2023-12-12T13:21:21.083Z,46.65
2023-12-12T13:23:50.208Z,46.66
2023-12-12T13:26:19.154Z,46.91
2023-12-12T13:28:51.865Z,47.33
2023-12-12T13:31:22.175Z,47.90
2023-12-12T13:33:52.365Z,48.62
2023-12-12T13:36:22.721Z,48.73
2023-12-12T13:38:51.873Z,49.34
2023-12-12T13:41:21.067Z,49.60
2023-12-12T13:43:50.265Z,50.10
2023-12-12T13:46:19.105Z,49.57
2023-12-12T13:48:48.286Z,49.36
2023-12-12T13:51:21.332Z,49.28
2023-12-12T13:53:56.395Z,49.20
2023-12-12T13:56:25.557Z,49.04
2023-12-12T13:59:01.685Z,49.36
2023-12-12T14:01:37.590Z,49.59
2023-12-12T14:04:08.200Z,49.64
2023-12-12T14:06:37.147Z,49.71
2023-12-12T14:09:07.669Z,50.06
2023-12-12T14:11:36.471Z,49.91
2023-12-12T14:14:05.793Z,50.20
2023-12-12T14:16:38.526Z,50.19
2023-12-12T14:19:10.320Z,50.47
2023-12-12T14:21:39.455Z,50.20
2023-12-12T14:24:10.038Z,50.61
2023-12-12T14:26:38.814Z,50.35
2023-12-12T14:29:08.130Z,50.53
2023-12-12T14:31:37.774Z,50.48
2023-12-12T14:34:08.045Z,50.98
2023-12-12T14:36:36.857Z,51.21
2023-12-12T14:39:06.002Z,50.76
2023-12-12T14:41:36.216Z,51.38
2023-12-12T14:44:05.729Z,51.29
2023-12-12T14:46:34.677Z,51.78
2023-12-12T14:49:04.073Z,51.53
2023-12-12T14:51:33.049Z,51.94
2023-12-12T14:54:04.976Z,52.08
2023-12-12T14:56:36.626Z,52.19
2023-12-12T14:59:05.951Z,52.54
2023-12-12T15:01:34.950Z,52.38
2023-12-12T15:04:05.048Z,53.37
2023-12-12T15:06:34.461Z,53.85
2023-12-12T15:09:05.126Z,53.14
2023-12-12T15:11:35.680Z,53.20
2023-12-12T15:14:04.915Z,53.41
2023-12-12T15:16:33.748Z,53.81
2023-12-12T15:19:04.008Z,53.77
2023-12-12T15:21:32.847Z,54.00
2023-12-12T15:24:01.988Z,54.22
2023-12-12T15:26:33.459Z,53.96
2023-12-12T15:29:06.038Z,53.78
2023-12-12T15:31:35.314Z,53.74
2023-12-12T15:34:04.738Z,53.95
2023-12-12T15:36:33.595Z,54.57
2023-12-12T15:39:02.937Z,53.82
2023-12-12T15:41:32.340Z,53.91
2023-12-12T15:44:01.553Z,53.79
2023-12-12T15:46:31.791Z,53.46
2023-12-12T15:49:01.606Z,52.45
2023-12-12T15:51:32.421Z,52.29
2023-12-12T15:54:01.530Z,51.76
2023-12-12T15:56:30.401Z,52.08
2023-12-12T15:58:59.603Z,51.50
2023-12-12T16:01:31.651Z,51.24
2023-12-12T16:04:02.338Z,50.96
2023-12-12T16:06:31.353Z,50.96
2023-12-12T16:09:00.415Z,50.95
2023-12-12T16:11:29.328Z,50.51
2023-12-12T16:13:58.512Z,50.32
2023-12-12T16:16:28.131Z,50.67
2023-12-12T16:18:57.242Z,50.86
2023-12-12T16:21:28.190Z,51.11
2023-12-12T16:23:59.182Z,50.50
2023-12-12T16:26:28.029Z,50.63
2023-12-12T16:28:57.288Z,50.64
2023-12-12T16:31:26.671Z,50.74
2023-12-12T16:33:55.541Z,50.44
2023-12-12T16:36:24.760Z,50.29
2023-12-12T16:39:01.249Z,50.06
2023-12-12T16:41:30.739Z,50.18
2023-12-12T16:43:59.554Z,50.28
2023-12-12T16:46:28.680Z,50.07
2023-12-12T16:48:57.586Z,49.75
2023-12-12T16:51:26.819Z,49.95
2023-12-12T16:53:57.119Z,49.99
2023-12-12T16:56:26.242Z,49.85
2023-12-12T16:58:55.041Z,49.70
2023-12-12T17:01:24.113Z,49.53
2023-12-12T17:03:53.085Z,49.83
2023-12-12T17:06:22.254Z,50.05
2023-12-12T17:08:52.164Z,49.78
2023-12-12T17:11:22.670Z,49.68
2023-12-12T17:13:51.850Z,49.76
2023-12-12T17:16:21.141Z,49.46
2023-12-12T17:18:50.121Z,49.65
2023-12-12T17:21:19.323Z,49.04
2023-12-12T17:23:50.582Z,49.47
2023-12-12T17:26:20.354Z,49.64
2023-12-12T17:28:51.093Z,49.02
2023-12-12T17:31:20.428Z,49.82
2023-12-12T17:33:49.438Z,49.10
2023-12-12T17:36:18.577Z,49.31
2023-12-12T17:38:47.390Z,49.28
2023-12-12T17:41:17.046Z,49.47
2023-12-12T17:43:46.538Z,49.21
2023-12-12T17:46:17.196Z,49.17
2023-12-12T17:48:46.095Z,48.86
2023-12-12T17:51:15.339Z,48.83
2023-12-12T17:53:44.174Z,48.62
2023-12-12T17:56:13.377Z,48.78
2023-12-12T17:58:42.239Z,48.40
2023-12-12T18:01:11.762Z,48.20
2023-12-12T18:03:43.704Z,48.20
2023-12-12T18:06:12.991Z,48.41
2023-12-12T18:08:42.545Z,48.31
2023-12-12T18:11:13.167Z,48.63
2023-12-12T18:13:42.230Z,48.63
2023-12-12T18:16:11.570Z,47.68
2023-12-12T18:18:41.912Z,47.64
2023-12-12T18:21:11.119Z,47.36
2023-12-12T18:23:39.960Z,47.44
2023-12-12T18:26:09.142Z,47.69
2023-12-12T18:28:38.000Z,47.51
2023-12-12T18:31:07.390Z,47.92
2023-12-12T18:33:36.355Z,48.31
2023-12-12T18:36:08.570Z,47.66
2023-12-12T18:38:37.454Z,46.86
2023-12-12T18:41:08.885Z,47.29
2023-12-12T18:43:37.728Z,47.13
2023-12-12T18:46:06.977Z,47.37
2023-12-12T18:48:37.232Z,47.57
2023-12-12T18:51:08.962Z,47.53
2023-12-12T18:53:38.326Z,48.04
2023-12-12T18:56:10.253Z,47.69
2023-12-12T18:58:39.291Z,47.40
2023-12-12T19:01:08.704Z,47.23
2023-12-12T19:03:37.862Z,46.76
2023-12-12T19:06:09.965Z,47.99
2023-12-12T19:08:38.784Z,47.97
2023-12-12T19:11:08.531Z,47.78
2023-12-12T19:13:37.379Z,47.89
2023-12-12T19:16:07.746Z,48.08
2023-12-12T19:18:37.020Z,47.97
2023-12-12T19:21:06.806Z,47.82
2023-12-12T19:23:36.982Z,47.83
2023-12-12T19:26:07.183Z,47.94
2023-12-12T19:28:36.238Z,47.34
2023-12-12T19:31:05.953Z,47.36
2023-12-12T19:33:35.365Z,47.44
2023-12-12T19:36:04.938Z,46.89
2023-12-12T19:38:34.769Z,46.62
2023-12-12T19:41:07.245Z,46.53
2023-12-12T19:43:36.271Z,46.14
2023-12-12T19:46:06.180Z,45.99
2023-12-12T19:48:35.069Z,45.43
2023-12-12T19:51:04.768Z,45.78
2023-12-12T19:53:33.555Z,45.26
2023-12-12T19:56:02.661Z,45.24
2023-12-12T19:58:32.944Z,45.84
2023-12-12T20:01:02.188Z,45.26
2023-12-12T20:03:31.193Z,46.53
2023-12-12T20:06:00.836Z,45.80
2023-12-12T20:08:30.465Z,45.73
2023-12-12T20:10:59.709Z,45.41
2023-12-12T20:13:28.628Z,45.70
2023-12-12T20:15:59.213Z,45.57
2023-12-12T20:18:31.073Z,45.83
2023-12-12T20:21:02.397Z,45.87
2023-12-12T20:23:31.424Z,46.06
2023-12-12T20:26:02.125Z,45.47
2023-12-12T20:28:31.028Z,46.04
2023-12-12T20:31:03.350Z,45.54
2023-12-12T20:33:32.610Z,46.35
2023-12-12T20:36:01.864Z,46.06
2023-12-12T20:38:32.203Z,46.44
2023-12-12T20:41:01.609Z,46.06
2023-12-12T20:43:30.556Z,46.21
2023-12-12T20:45:59.661Z,46.67
2023-12-12T20:48:29.852Z,46.94
2023-12-12T20:50:59.305Z,46.20
2023-12-12T20:53:28.103Z,46.71
2023-12-12T20:55:57.839Z,46.33
2023-12-12T20:58:27.912Z,46.58
2023-12-12T21:00:57.102Z,47.37
2023-12-12T21:03:25.944Z,46.67
2023-12-12T21:05:57.832Z,46.99
2023-12-12T21:08:26.625Z,46.26
2023-12-12T21:10:55.813Z,46.22
2023-12-12T21:13:27.751Z,45.99
2023-12-12T21:15:57.389Z,46.02
2023-12-12T21:18:27.186Z,45.83
2023-12-12T21:20:58.023Z,45.90
2023-12-12T21:23:26.945Z,46.24
2023-12-12T21:25:56.081Z,46.03
2023-12-12T21:28:25.224Z,45.29
2023-12-12T21:30:54.399Z,45.35
2023-12-12T21:33:23.233Z,45.61
2023-12-12T21:35:52.191Z,45.11
2023-12-12T21:38:22.775Z,45.29
2023-12-12T21:40:52.195Z,46.14
2023-12-12T21:43:21.062Z,46.43
2023-12-12T21:45:50.278Z,46.59
2023-12-12T21:48:19.296Z,46.65
2023-12-12T21:50:48.864Z,46.63
2023-12-12T21:53:17.667Z,46.33
2023-12-12T21:55:48.334Z,46.72
2023-12-12T21:58:18.402Z,46.54
2023-12-12T22:00:47.599Z,45.80
2023-12-12T22:03:16.842Z,46.26
2023-12-12T22:05:45.940Z,46.04
2023-12-12T22:08:14.770Z,45.24
2023-12-12T22:10:43.927Z,45.15
2023-12-12T22:13:16.673Z,45.31
2023-12-12T22:15:45.798Z,44.83
2023-12-12T22:18:16.452Z,44.94
2023-12-12T22:20:45.615Z,45.27
2023-12-12T22:23:14.365Z,45.11
2023-12-12T22:25:43.674Z,44.75
2023-12-12T22:28:13.997Z,44.44
2023-12-12T22:30:43.552Z,43.75
2023-12-12T22:33:12.324Z,44.12
2023-12-12T22:35:41.432Z,44.31
2023-12-12T22:38:10.244Z,44.09
2023-12-12T22:40:39.358Z,43.93
2023-12-12T22:43:08.132Z,44.02
2023-12-12T22:45:38.888Z,43.73
2023-12-12T22:48:08.096Z,43.24
2023-12-12T22:50:39.305Z,43.46
2023-12-12T22:53:08.384Z,43.20
2023-12-12T22:55:37.585Z,43.51
2023-12-12T22:58:06.317Z,44.47
2023-12-12T23:00:39.248Z,43.86
2023-12-12T23:03:12.491Z,44.59
2023-12-12T23:05:41.585Z,44.39
2023-12-12T23:08:10.441Z,44.39
2023-12-12T23:10:39.728Z,43.99
2023-12-12T23:13:08.952Z,43.73
2023-12-12T23:15:38.180Z,43.89
2023-12-12T23:18:06.993Z,43.85
2023-12-12T23:20:37.488Z,43.91
2023-12-12T23:23:09.159Z,44.05
2023-12-12T23:25:38.481Z,44.86
2023-12-12T23:28:09.272Z,44.52
2023-12-12T23:30:38.574Z,44.33
2023-12-12T23:33:07.799Z,44.65
2023-12-12T23:35:38.360Z,44.08
2023-12-12T23:38:07.270Z,44.52
2023-12-12T23:40:36.325Z,44.34
2023-12-12T23:43:05.097Z,44.05
2023-12-12T23:45:38.170Z,44.42
2023-12-12T23:48:07.714Z,44.28
2023-12-12T23:50:38.144Z,44.27
2023-12-12T23:53:07.020Z,44.13
2023-12-12T23:55:36.244Z,43.94
2023-12-12T23:58:06.071Z,44.03
